createdAt,value
2023-05-06T00:01:56.299Z,14.77
2023-05-06T00:04:24.470Z,13.77
2023-05-06T00:06:52.816Z,11.10
2023-05-06T00:09:21.096Z,10.00
2023-05-06T00:11:48.980Z,10.70
2023-05-06T00:14:16.843Z,10.67
2023-05-06T00:16:46.090Z,12.57
2023-05-06T00:19:13.861Z,12.43
2023-05-06T00:21:41.571Z,19.73
2023-05-06T00:24:09.409Z,17.30
2023-05-06T00:26:37.066Z,19.63
2023-05-06T00:29:04.738Z,15.77
2023-05-06T00:31:32.429Z,20.90
2023-05-06T00:34:01.490Z,17.80
2023-05-06T00:36:30.046Z,22.33
2023-05-06T00:38:57.731Z,19.47
2023-05-06T00:41:25.435Z,16.07
2023-05-06T00:43:53.102Z,19.00
2023-05-06T00:46:20.892Z,15.67
2023-05-06T00:48:48.705Z,13.07
2023-05-06T00:51:17.765Z,16.40
2023-05-06T00:53:46.727Z,14.27
2023-05-06T00:56:14.448Z,14.17
2023-05-06T00:58:42.319Z,12.87
2023-05-06T01:01:10.097Z,18.03
2023-05-06T01:03:38.123Z,16.73
2023-05-06T01:06:14.548Z,16.87
2023-05-06T01:08:49.122Z,16.03
2023-05-06T01:11:21.555Z,16.13
2023-05-06T01:13:51.406Z,14.67
2023-05-06T01:16:21.607Z,16.80
2023-05-06T01:18:50.664Z,12.53
2023-05-06T01:21:19.924Z,14.23
2023-05-06T01:23:58.931Z,12.27
2023-05-06T01:26:27.262Z,14.73
2023-05-06T01:28:55.479Z,16.30
2023-05-06T01:31:27.177Z,12.97
2023-05-06T01:34:06.909Z,14.00
2023-05-06T01:36:40.163Z,13.57
2023-05-06T01:39:13.726Z,14.30
2023-05-06T01:41:42.048Z,13.67
2023-05-06T01:44:10.253Z,11.97
2023-05-06T01:46:37.970Z,15.43
2023-05-06T01:49:08.125Z,14.47
2023-05-06T01:51:35.920Z,17.40
2023-05-06T01:54:03.825Z,18.80
2023-05-06T01:56:33.371Z,15.57
2023-05-06T01:59:01.156Z,17.00
2023-05-06T02:01:28.839Z,19.23
2023-05-06T02:04:58.570Z,23.10
2023-05-06T02:07:26.207Z,25.70
2023-05-06T02:09:53.848Z,27.13
2023-05-06T02:12:21.488Z,21.20
2023-05-06T02:14:49.141Z,26.23
2023-05-06T02:17:16.852Z,28.47
2023-05-06T02:19:44.495Z,21.97
2023-05-06T02:22:13.501Z,21.10
2023-05-06T02:24:41.213Z,18.73
2023-05-06T02:27:08.879Z,16.97
2023-05-06T02:29:36.535Z,17.83
2023-05-06T02:32:04.348Z,19.50
2023-05-06T02:34:32.070Z,19.90
2023-05-06T02:36:59.776Z,23.10
2023-05-06T02:39:28.826Z,26.60
2023-05-06T02:41:56.540Z,26.33
2023-05-06T02:44:24.202Z,34.37
2023-05-06T02:46:52.024Z,27.23
2023-05-06T02:49:19.671Z,26.83
2023-05-06T02:51:47.378Z,25.00
2023-05-06T02:54:15.084Z,30.47
2023-05-06T02:56:46.209Z,24.17
2023-05-06T02:59:14.389Z,26.40
2023-05-06T03:01:42.062Z,25.90
2023-05-06T03:04:09.794Z,24.93
2023-05-06T03:06:37.505Z,22.77
2023-05-06T03:09:05.936Z,24.63
2023-05-06T03:11:33.648Z,24.47
2023-05-06T03:14:02.735Z,30.87
2023-05-06T03:16:30.510Z,36.67
2023-05-06T03:18:58.549Z,25.03
2023-05-06T03:21:26.214Z,25.97
2023-05-06T03:23:53.936Z,31.40
2023-05-06T03:26:22.214Z,25.97
2023-05-06T03:28:50.213Z,33.00
2023-05-06T03:31:19.297Z,32.13
2023-05-06T03:33:47.041Z,40.93
2023-05-06T03:36:15.062Z,153.40
2023-05-06T03:38:42.815Z,329.73
2023-05-06T03:41:10.543Z,161.23
2023-05-06T03:43:38.417Z,98.73
2023-05-06T03:46:06.085Z,194.40
2023-05-06T03:48:35.187Z,184.73
2023-05-06T03:51:03.118Z,181.87
2023-05-06T03:53:30.890Z,195.97
2023-05-06T03:55:58.536Z,205.40
2023-05-06T03:58:26.348Z,157.30
2023-05-06T04:00:54.011Z,111.03
2023-05-06T04:03:21.787Z,161.80
2023-05-06T04:05:51.602Z,103.37
2023-05-06T04:08:19.333Z,89.47
2023-05-06T04:10:47.132Z,146.27
2023-05-06T04:13:15.018Z,104.17
2023-05-06T04:15:43.509Z,120.00
2023-05-06T04:18:11.321Z,62.33
2023-05-06T04:20:38.980Z,48.33
2023-05-06T04:23:08.169Z,46.83
2023-05-06T04:25:35.895Z,41.30
2023-05-06T04:28:03.576Z,54.20
2023-05-06T04:30:31.233Z,45.87
2023-05-06T04:32:58.891Z,40.30
2023-05-06T04:35:27.020Z,37.07
2023-05-06T04:37:54.746Z,39.73
2023-05-06T04:40:26.365Z,33.90
2023-05-06T04:42:54.103Z,36.70
2023-05-06T04:45:22.273Z,34.73
2023-05-06T04:47:50.029Z,33.67
2023-05-06T04:50:17.985Z,31.27
2023-05-06T04:52:45.724Z,28.27
2023-05-06T04:55:13.565Z,30.33
2023-05-06T04:57:42.574Z,26.83
2023-05-06T05:00:11.270Z,26.77
2023-05-06T05:02:39.244Z,28.13
2023-05-06T05:05:08.006Z,38.90
2023-05-06T05:07:35.792Z,27.07
2023-05-06T05:10:03.546Z,25.43
2023-05-06T05:12:31.656Z,29.80
2023-05-06T05:15:00.702Z,31.73
2023-05-06T05:17:28.354Z,28.43
2023-05-06T05:19:56.168Z,28.33
2023-05-06T05:22:23.878Z,44.83
2023-05-06T05:24:51.649Z,43.13
2023-05-06T05:27:19.505Z,47.83
2023-05-06T05:29:47.160Z,43.57
2023-05-06T05:32:16.207Z,44.83
2023-05-06T05:34:43.943Z,38.70
2023-05-06T05:37:11.597Z,38.30
2023-05-06T05:39:39.353Z,34.40
2023-05-06T05:42:07.094Z,42.93
2023-05-06T05:44:34.817Z,38.40
2023-05-06T05:47:03.469Z,40.70
2023-05-06T05:49:32.540Z,47.10
2023-05-06T05:52:00.328Z,45.77
2023-05-06T05:54:28.043Z,42.70
2023-05-06T05:56:55.744Z,37.87
2023-05-06T05:59:23.468Z,45.83
2023-05-06T06:01:51.120Z,43.70
2023-05-06T06:04:18.892Z,46.30
2023-05-06T06:06:47.952Z,44.73
2023-05-06T06:09:16.692Z,43.87
2023-05-06T06:11:44.436Z,37.07
2023-05-06T06:14:12.240Z,40.80
2023-05-06T06:16:40.046Z,46.80
2023-05-06T06:19:07.774Z,45.00
2023-05-06T06:21:35.904Z,46.27
2023-05-06T06:24:05.778Z,46.90
2023-05-06T06:26:33.500Z,44.60
2023-05-06T06:29:01.210Z,48.00
2023-05-06T06:31:29.229Z,51.17
2023-05-06T06:33:57.087Z,42.17
2023-05-06T06:36:24.815Z,43.33
2023-05-06T06:38:52.468Z,44.17
2023-05-06T06:41:21.491Z,42.43
2023-05-06T06:43:49.204Z,41.93
2023-05-06T06:46:17.069Z,38.37
2023-05-06T06:48:44.807Z,36.63
2023-05-06T06:51:12.516Z,36.30
2023-05-06T06:53:40.244Z,34.77
2023-05-06T06:56:11.012Z,35.93
2023-05-06T06:58:40.061Z,29.00
2023-05-06T07:01:07.809Z,26.90
2023-05-06T07:03:35.538Z,19.87
2023-05-06T07:06:03.249Z,17.90
2023-05-06T07:08:31.053Z,15.90
2023-05-06T07:10:58.732Z,17.47
2023-05-06T07:13:26.534Z,17.10
2023-05-06T07:15:55.683Z,12.77
2023-05-06T07:18:23.431Z,13.10
2023-05-06T07:20:51.202Z,18.47
2023-05-06T07:23:18.973Z,13.13
2023-05-06T07:25:46.692Z,14.07
2023-05-06T07:28:14.448Z,12.77
2023-05-06T07:30:42.271Z,13.50
2023-05-06T07:33:11.416Z,13.03
2023-05-06T07:35:39.162Z,13.13
2023-05-06T07:38:06.802Z,11.50
2023-05-06T07:40:34.620Z,10.90
2023-05-06T07:43:03.503Z,10.40
2023-05-06T07:45:31.307Z,12.43
2023-05-06T07:47:59.107Z,10.30
2023-05-06T07:50:28.287Z,9.60
2023-05-06T07:52:55.959Z,9.97
2023-05-06T07:55:24.087Z,9.97
2023-05-06T07:57:51.856Z,10.73
2023-05-06T08:00:19.714Z,9.60
2023-05-06T08:02:48.570Z,11.17
2023-05-06T08:05:17.350Z,12.63
2023-05-06T08:07:47.326Z,14.17
2023-05-06T08:10:15.580Z,15.37
2023-05-06T08:12:43.256Z,14.97
2023-05-06T08:15:12.306Z,16.13
2023-05-06T08:17:40.398Z,15.47
2023-05-06T08:20:09.133Z,18.70
2023-05-06T08:22:36.954Z,19.40
2023-05-06T08:25:06.750Z,21.43
2023-05-06T08:27:34.418Z,19.03
2023-05-06T08:30:02.106Z,27.33
2023-05-06T08:32:29.890Z,22.33
2023-05-06T08:34:57.598Z,19.37
2023-05-06T08:37:25.330Z,24.17
2023-05-06T08:39:53.020Z,23.70
2023-05-06T08:42:23.210Z,21.27
2023-05-06T08:44:52.549Z,27.10
2023-05-06T08:47:20.599Z,23.90
2023-05-06T08:49:48.343Z,21.27
2023-05-06T08:52:16.254Z,25.97
2023-05-06T08:54:43.956Z,18.03
2023-05-06T08:57:13.030Z,22.93
2023-05-06T08:59:42.691Z,25.23
2023-05-06T09:02:11.220Z,22.07
2023-05-06T09:04:38.989Z,22.00
2023-05-06T09:07:06.675Z,20.30
2023-05-06T09:09:34.328Z,19.07
2023-05-06T09:12:02.845Z,23.90
2023-05-06T09:14:30.594Z,20.73
2023-05-06T09:17:00.086Z,22.50
2023-05-06T09:19:28.565Z,19.80
2023-05-06T09:21:56.737Z,22.63
2023-05-06T09:24:25.097Z,21.53
2023-05-06T09:26:55.166Z,20.90
2023-05-06T09:29:22.950Z,20.53
2023-05-06T09:31:52.688Z,20.03
2023-05-06T09:34:22.753Z,20.40
2023-05-06T09:36:50.618Z,18.23
2023-05-06T09:39:18.286Z,18.30
2023-05-06T09:41:46.013Z,17.73
2023-05-06T09:44:13.985Z,16.73
2023-05-06T09:46:42.220Z,19.47
2023-05-06T09:49:10.276Z,15.10
2023-05-06T09:51:39.535Z,18.73
2023-05-06T09:54:07.418Z,11.90
2023-05-06T09:56:35.550Z,11.23
2023-05-06T09:59:04.202Z,14.43
2023-05-06T10:01:36.720Z,14.90
2023-05-06T10:04:07.447Z,16.10
2023-05-06T10:06:39.418Z,15.27
2023-05-06T10:09:09.197Z,16.63
2023-05-06T10:11:37.357Z,16.10
2023-05-06T10:14:05.862Z,17.33
2023-05-06T10:16:35.836Z,16.67
2023-05-06T10:19:04.792Z,17.60
2023-05-06T10:21:34.226Z,18.00
2023-05-06T10:24:07.076Z,17.63
2023-05-06T10:26:38.011Z,13.73
2023-05-06T10:29:06.342Z,16.33
2023-05-06T10:31:34.728Z,19.20
2023-05-06T10:34:04.140Z,17.93
2023-05-06T10:36:36.230Z,18.60
2023-05-06T10:39:04.688Z,17.10
2023-05-06T10:41:33.414Z,21.07
2023-05-06T10:44:02.491Z,19.00
2023-05-06T10:46:31.096Z,18.57
2023-05-06T10:49:18.331Z,20.00
2023-05-06T10:51:47.991Z,20.80
2023-05-06T10:54:25.380Z,20.20
2023-05-06T10:57:11.929Z,17.33
2023-05-06T10:59:46.581Z,17.63
2023-05-06T11:02:14.991Z,17.20
2023-05-06T11:04:42.755Z,22.60
2023-05-06T11:07:12.160Z,19.83
2023-05-06T11:09:56.382Z,19.77
2023-05-06T11:12:24.900Z,20.83
2023-05-06T11:14:53.964Z,22.60
2023-05-06T11:17:32.863Z,20.87
2023-05-06T11:20:20.690Z,19.63
2023-05-06T11:22:48.449Z,19.37
2023-05-06T11:25:16.230Z,24.53
2023-05-06T11:27:43.957Z,22.50
2023-05-06T11:30:17.201Z,27.80
2023-05-06T11:32:44.953Z,24.03
2023-05-06T11:35:13.089Z,23.03
2023-05-06T11:37:43.560Z,24.77
2023-05-06T11:40:20.136Z,27.37
2023-05-06T11:42:47.830Z,28.13
2023-05-06T11:45:17.009Z,27.87
2023-05-06T11:47:45.596Z,27.57
2023-05-06T11:50:13.355Z,25.50
2023-05-06T11:52:41.228Z,25.70
2023-05-06T11:55:10.877Z,26.90
2023-05-06T11:57:44.746Z,29.03
2023-05-06T12:00:14.367Z,23.80
2023-05-06T12:02:43.484Z,25.90
2023-05-06T12:05:12.196Z,25.00
2023-05-06T12:07:42.930Z,25.13
2023-05-06T12:10:11.289Z,25.10
2023-05-06T12:12:39.328Z,26.77
2023-05-06T12:15:08.313Z,26.10
2023-05-06T12:17:36.479Z,34.07
2023-05-06T12:20:06.854Z,32.40
2023-05-06T12:22:34.517Z,29.10
2023-05-06T12:25:14.400Z,37.13
2023-05-06T12:27:42.098Z,33.57
2023-05-06T12:30:11.422Z,32.47
2023-05-06T12:32:57.532Z,34.23
2023-05-06T12:35:31.449Z,39.13
2023-05-06T12:38:09.162Z,38.93
2023-05-06T12:40:37.063Z,44.60
2023-05-06T12:43:04.927Z,45.63
2023-05-06T12:45:32.742Z,40.13
2023-05-06T12:48:02.690Z,44.37
2023-05-06T12:50:35.988Z,44.30
2023-05-06T12:53:04.305Z,45.60
2023-05-06T12:55:32.459Z,43.17
2023-05-06T12:58:00.636Z,47.83
2023-05-06T13:00:28.340Z,43.53
2023-05-06T13:02:56.065Z,44.17
2023-05-06T13:05:24.182Z,46.13
2023-05-06T13:07:53.993Z,41.80
2023-05-06T13:10:21.760Z,41.37
2023-05-06T13:12:49.538Z,40.80
2023-05-06T13:15:17.359Z,44.87
2023-05-06T13:17:45.063Z,49.37
2023-05-06T13:20:14.184Z,48.10
2023-05-06T13:22:53.650Z,54.17
2023-05-06T13:25:24.210Z,41.80
2023-05-06T13:27:51.869Z,46.50
2023-05-06T13:30:19.508Z,41.57
2023-05-06T13:32:48.028Z,35.90
2023-05-06T13:35:15.854Z,35.33
2023-05-06T13:37:43.516Z,31.73
2023-05-06T13:40:12.946Z,27.60
2023-05-06T13:42:42.252Z,29.57
2023-05-06T13:45:11.314Z,27.27
2023-05-06T13:47:39.114Z,30.67
2023-05-06T13:50:08.212Z,29.83
2023-05-06T13:52:36.076Z,32.77
2023-05-06T13:55:03.809Z,34.20
2023-05-06T13:57:31.460Z,33.47
2023-05-06T14:00:00.650Z,30.27
2023-05-06T14:02:28.416Z,35.50
2023-05-06T14:04:56.160Z,35.57
2023-05-06T14:07:23.877Z,34.30
2023-05-06T14:09:51.521Z,34.40
2023-05-06T14:12:19.204Z,29.00
2023-05-06T14:14:46.905Z,30.77
2023-05-06T14:17:16.120Z,31.17
2023-05-06T14:19:43.844Z,26.80
2023-05-06T14:22:11.502Z,29.13
2023-05-06T14:24:39.150Z,27.83
2023-05-06T14:27:06.924Z,23.80
2023-05-06T14:29:34.597Z,25.07
2023-05-06T14:32:02.306Z,23.70
2023-05-06T14:34:31.750Z,19.27
2023-05-06T14:36:59.482Z,20.03
2023-05-06T14:39:27.216Z,19.23
2023-05-06T14:41:55.000Z,20.70
2023-05-06T14:44:22.979Z,17.73
2023-05-06T14:46:50.916Z,17.70
2023-05-06T14:49:18.610Z,14.27
2023-05-06T14:51:49.843Z,13.97
2023-05-06T14:54:17.613Z,13.43
2023-05-06T14:56:46.833Z,14.07
2023-05-06T14:59:14.547Z,12.70
2023-05-06T15:01:42.305Z,14.33
2023-05-06T15:04:10.516Z,15.03
2023-05-06T15:06:38.308Z,17.80
2023-05-06T15:09:07.415Z,13.67
2023-05-06T15:11:35.597Z,15.10
2023-05-06T15:14:03.416Z,18.37
2023-05-06T15:16:31.085Z,17.13
2023-05-06T15:18:58.834Z,16.57
2023-05-06T15:21:27.544Z,18.00
2023-05-06T15:23:56.157Z,17.63
2023-05-06T15:26:25.223Z,16.60
2023-05-06T15:28:52.952Z,19.40
2023-05-06T15:31:20.650Z,16.80
2023-05-06T15:33:48.315Z,18.10
2023-05-06T15:36:15.996Z,14.57
2023-05-06T15:38:59.894Z,16.67
2023-05-06T15:41:30.565Z,17.77
2023-05-06T15:43:59.517Z,17.23
2023-05-06T15:46:27.529Z,14.73
2023-05-06T15:49:15.698Z,15.20
2023-05-06T15:51:43.359Z,14.70
2023-05-06T15:54:11.105Z,17.57
2023-05-06T15:56:41.536Z,16.73
2023-05-06T15:59:09.398Z,15.10
2023-05-06T16:02:19.056Z,15.63
2023-05-06T16:04:25.931Z,14.77
2023-05-06T16:06:53.908Z,13.47
2023-05-06T16:09:21.674Z,13.77
2023-05-06T16:11:50.756Z,12.30
2023-05-06T16:14:18.462Z,14.53
2023-05-06T16:16:46.267Z,13.40
2023-05-06T16:19:13.995Z,11.97
2023-05-06T16:21:41.709Z,12.73
2023-05-06T16:24:09.614Z,10.73
2023-05-06T16:26:37.701Z,10.80
2023-05-06T16:29:06.809Z,11.33
2023-05-06T16:31:35.052Z,11.00
2023-05-06T16:34:02.834Z,12.00
2023-05-06T16:36:30.583Z,8.63
2023-05-06T16:38:58.248Z,9.67
2023-05-06T16:41:26.029Z,13.03
2023-05-06T16:43:53.698Z,8.53
2023-05-06T16:46:24.409Z,6.93
2023-05-06T16:48:52.537Z,9.37
2023-05-06T16:51:20.327Z,8.67
2023-05-06T16:53:48.084Z,7.63
2023-05-06T16:56:15.755Z,10.93
2023-05-06T16:58:43.500Z,7.57
2023-05-06T17:01:11.773Z,7.10
2023-05-06T17:03:40.973Z,9.57
2023-05-06T17:06:08.837Z,5.03
2023-05-06T17:08:37.167Z,5.00
2023-05-06T17:11:07.074Z,5.30
2023-05-06T17:13:34.835Z,5.97
2023-05-06T17:16:02.580Z,5.90
2023-05-06T17:18:30.274Z,6.57
2023-05-06T17:20:59.733Z,6.93
2023-05-06T17:23:27.417Z,5.90
2023-05-06T17:25:56.985Z,6.83
2023-05-06T17:28:24.844Z,6.30
2023-05-06T17:30:52.543Z,9.20
2023-05-06T17:33:20.269Z,11.27
2023-05-06T17:35:48.001Z,7.63
2023-05-06T17:38:17.419Z,7.07
2023-05-06T17:40:45.115Z,9.63
2023-05-06T17:43:12.795Z,8.07
2023-05-06T17:45:41.510Z,7.33
2023-05-06T17:48:09.435Z,5.47
2023-05-06T17:50:37.120Z,8.47
2023-05-06T17:53:04.834Z,5.70
2023-05-06T17:55:33.862Z,7.00
2023-05-06T17:58:01.577Z,10.13
2023-05-06T18:00:29.263Z,8.07
2023-05-06T18:02:57.671Z,7.37
2023-05-06T18:05:26.261Z,10.87
2023-05-06T18:07:53.980Z,7.23
2023-05-06T18:10:21.742Z,8.27
2023-05-06T18:12:50.922Z,6.00
2023-05-06T18:15:18.755Z,6.87
2023-05-06T18:17:46.905Z,11.70
2023-05-06T18:20:14.776Z,11.77
2023-05-06T18:22:42.946Z,9.13
2023-05-06T18:25:11.689Z,7.67
2023-05-06T18:27:39.630Z,8.33
2023-05-06T18:30:09.518Z,6.63
2023-05-06T18:32:37.404Z,8.03
2023-05-06T18:35:05.517Z,9.63
2023-05-06T18:37:33.240Z,8.50
2023-05-06T18:40:00.886Z,7.53
2023-05-06T18:42:28.691Z,8.70
2023-05-06T18:44:56.504Z,8.60
2023-05-06T18:47:26.351Z,9.77
2023-05-06T18:49:54.064Z,9.27
2023-05-06T18:52:21.743Z,8.60
2023-05-06T18:54:49.374Z,7.33
2023-05-06T18:57:17.267Z,9.13
2023-05-06T18:59:44.995Z,11.00
2023-05-06T19:02:12.644Z,7.73
2023-05-06T19:04:41.689Z,7.70
2023-05-06T19:07:10.188Z,8.80
2023-05-06T19:09:38.054Z,7.70
2023-05-06T19:12:05.859Z,7.80
2023-05-06T19:14:34.593Z,8.80
2023-05-06T19:17:02.433Z,10.47
2023-05-06T19:19:30.313Z,8.60
2023-05-06T19:22:01.750Z,8.13
2023-05-06T19:24:30.762Z,10.67
2023-05-06T19:26:58.495Z,10.90
2023-05-06T19:29:26.278Z,10.70
2023-05-06T19:31:54.523Z,13.00
2023-05-06T19:34:22.200Z,11.47
2023-05-06T19:36:49.844Z,10.70
2023-05-06T19:39:18.909Z,13.20
2023-05-06T19:41:47.304Z,10.20
2023-05-06T19:44:15.095Z,13.53
2023-05-06T19:46:42.933Z,12.00
2023-05-06T19:49:10.753Z,13.30
2023-05-06T19:51:38.531Z,14.63
2023-05-06T19:54:06.560Z,16.43
2023-05-06T19:56:35.648Z,11.67
2023-05-06T19:59:03.288Z,14.67
2023-05-06T20:01:30.937Z,14.17
2023-05-06T20:03:58.785Z,14.10
2023-05-06T20:06:26.607Z,13.33
2023-05-06T20:08:54.324Z,13.53
2023-05-06T20:11:22.400Z,15.20
2023-05-06T20:13:51.606Z,17.60
2023-05-06T20:16:19.419Z,16.53
2023-05-06T20:18:47.681Z,18.33
2023-05-06T20:21:16.732Z,18.63
2023-05-06T20:23:44.367Z,15.30
2023-05-06T20:26:12.141Z,17.20
2023-05-06T20:28:39.855Z,15.80
2023-05-06T20:31:08.999Z,19.83
2023-05-06T20:33:36.756Z,16.10
2023-05-06T20:36:05.034Z,15.90
2023-05-06T20:38:32.786Z,19.97
2023-05-06T20:41:02.820Z,16.60
2023-05-06T20:43:30.630Z,19.77
2023-05-06T20:45:58.366Z,19.23
2023-05-06T20:48:27.695Z,21.87
2023-05-06T20:50:57.050Z,15.80
2023-05-06T20:53:24.892Z,21.13
2023-05-06T20:55:52.980Z,16.67
2023-05-06T20:58:21.087Z,17.93
2023-05-06T21:00:49.985Z,18.60
2023-05-06T21:03:17.765Z,17.50
2023-05-06T21:05:47.105Z,20.30
2023-05-06T21:08:15.850Z,16.13
2023-05-06T21:10:43.561Z,19.17
2023-05-06T21:13:11.245Z,21.40
2023-05-06T21:15:39.447Z,17.30
2023-05-06T21:18:07.319Z,19.33
2023-05-06T21:20:35.101Z,20.00
2023-05-06T21:23:04.402Z,19.07
2023-05-06T21:25:32.098Z,20.10
2023-05-06T21:28:03.251Z,20.20
2023-05-06T21:30:31.010Z,20.23
2023-05-06T21:32:58.888Z,23.83
2023-05-06T21:35:26.560Z,23.73
2023-05-06T21:37:54.263Z,20.07
2023-05-06T21:40:23.370Z,19.47
2023-05-06T21:42:51.217Z,23.00
2023-05-06T21:45:18.976Z,21.17
2023-05-06T21:47:46.770Z,23.70
2023-05-06T21:50:14.784Z,24.70
2023-05-06T21:52:42.712Z,25.30
2023-05-06T21:55:11.400Z,25.67
2023-05-06T21:57:40.755Z,23.17
2023-05-06T22:00:12.253Z,23.07
2023-05-06T22:02:40.745Z,22.03
2023-05-06T22:05:09.395Z,25.00
2023-05-06T22:07:37.322Z,24.13
2023-05-06T22:10:06.183Z,27.87
2023-05-06T22:12:33.927Z,25.07
2023-05-06T22:15:03.184Z,25.13
2023-05-06T22:17:32.636Z,27.03
2023-05-06T22:20:02.409Z,26.03
2023-05-06T22:22:30.705Z,26.27
2023-05-06T22:24:58.654Z,25.13
2023-05-06T22:27:26.333Z,25.73
2023-05-06T22:29:54.034Z,24.27
2023-05-06T22:32:23.093Z,23.60
2023-05-06T22:34:50.755Z,24.37
2023-05-06T22:37:18.398Z,24.20
2023-05-06T22:39:47.432Z,24.53
2023-05-06T22:42:15.071Z,27.43
2023-05-06T22:44:43.933Z,26.40
2023-05-06T22:47:11.681Z,25.60
2023-05-06T22:49:40.759Z,26.30
2023-05-06T22:52:08.484Z,24.30
2023-05-06T22:54:36.190Z,25.90
2023-05-06T22:57:03.905Z,27.33
2023-05-06T22:59:31.642Z,26.87
2023-05-06T23:01:59.364Z,27.70
2023-05-06T23:04:27.011Z,27.77
2023-05-06T23:06:57.448Z,27.73
2023-05-06T23:09:25.156Z,29.13
2023-05-06T23:11:52.809Z,26.53
2023-05-06T23:14:20.601Z,25.80
2023-05-06T23:16:48.348Z,30.70
2023-05-06T23:19:16.004Z,28.17
2023-05-06T23:21:43.963Z,27.40
2023-05-06T23:24:13.111Z,27.97
2023-05-06T23:26:41.142Z,25.97
2023-05-06T23:29:08.841Z,30.23
2023-05-06T23:31:36.603Z,24.27
2023-05-06T23:34:04.492Z,25.73
2023-05-06T23:36:32.247Z,25.30
2023-05-06T23:38:59.950Z,23.77
2023-05-06T23:41:28.970Z,22.83
2023-05-06T23:43:56.822Z,26.53
2023-05-06T23:46:24.630Z,25.97
2023-05-06T23:48:52.309Z,24.73
2023-05-06T23:51:20.412Z,21.80
2023-05-06T23:53:48.110Z,23.27
2023-05-06T23:56:16.293Z,19.67
2023-05-06T23:58:45.305Z,21.23
